sensor_id;sensor_type;location;lat;lon;timestamp;temperature;humidity
7572;DHT22;3827;49.928;8.548;2023-11-19T00:00:00;7.70;99.90
7572;DHT22;3827;49.928;8.548;2023-11-19T00:02:29;7.70;99.90
7572;DHT22;3827;49.928;8.548;2023-11-19T00:04:56;8.60;99.90
7572;DHT22;3827;49.928;8.548;2023-11-19T00:07:24;7.70;99.90
7572;DHT22;3827;49.928;8.548;2023-11-19T00:09:51;7.70;99.90
7572;DHT22;3827;49.928;8.548;2023-11-19T00:12:18;7.70;99.90
7572;DHT22;3827;49.928;8.548;2023-11-19T00:14:45;7.80;99.90
7572;DHT22;3827;49.928;8.548;2023-11-19T00:17:12;7.70;99.90
7572;DHT22;3827;49.928;8.548;2023-11-19T00:19:39;7.80;99.90
7572;DHT22;3827;49.928;8.548;2023-11-19T00:22:05;7.80;99.90
7572;DHT22;3827;49.928;8.548;2023-11-19T00:24:34;7.80;99.90
7572;DHT22;3827;49.928;8.548;2023-11-19T00:27:00;7.80;99.90
7572;DHT22;3827;49.928;8.548;2023-11-19T00:29:27;7.80;99.90
7572;DHT22;3827;49.928;8.548;2023-11-19T00:31:54;8.00;99.90
7572;DHT22;3827;49.928;8.548;2023-11-19T00:34:21;7.80;99.90
7572;DHT22;3827;49.928;8.548;2023-11-19T00:36:48;7.90;99.90
7572;DHT22;3827;49.928;8.548;2023-11-19T00:39:21;7.90;99.90
7572;DHT22;3827;49.928;8.548;2023-11-19T00:41:50;7.90;99.90
7572;DHT22;3827;49.928;8.548;2023-11-19T00:44:16;7.90;99.90
7572;DHT22;3827;49.928;8.548;2023-11-19T00:46:43;7.90;99.90
7572;DHT22;3827;49.928;8.548;2023-11-19T00:49:10;7.90;99.90
7572;DHT22;3827;49.928;8.548;2023-11-19T00:51:37;7.90;99.90
7572;DHT22;3827;49.928;8.548;2023-11-19T00:54:04;7.90;99.90
7572;DHT22;3827;49.928;8.548;2023-11-19T00:56:31;7.90;99.90
7572;DHT22;3827;49.928;8.548;2023-11-19T00:58:59;7.90;99.90
7572;DHT22;3827;49.928;8.548;2023-11-19T01:01:26;7.90;99.90
7572;DHT22;3827;49.928;8.548;2023-11-19T01:03:53;7.90;99.90
7572;DHT22;3827;49.928;8.548;2023-11-19T01:06:27;7.90;99.90
7572;DHT22;3827;49.928;8.548;2023-11-19T01:08:54;7.90;99.90
7572;DHT22;3827;49.928;8.548;2023-11-19T01:11:22;7.90;99.90
7572;DHT22;3827;49.928;8.548;2023-11-19T01:13:49;7.90;99.90
7572;DHT22;3827;49.928;8.548;2023-11-19T01:16:18;7.90;99.90
7572;DHT22;3827;49.928;8.548;2023-11-19T01:18:47;7.90;99.90
7572;DHT22;3827;49.928;8.548;2023-11-19T01:21:14;7.90;99.90
7572;DHT22;3827;49.928;8.548;2023-11-19T01:23:41;8.00;99.90
7572;DHT22;3827;49.928;8.548;2023-11-19T01:26:09;7.90;99.90
7572;DHT22;3827;49.928;8.548;2023-11-19T01:28:36;7.90;99.90
7572;DHT22;3827;49.928;8.548;2023-11-19T01:31:05;8.00;99.90
7572;DHT22;3827;49.928;8.548;2023-11-19T01:33:33;7.90;99.90
7572;DHT22;3827;49.928;8.548;2023-11-19T01:36:00;8.00;99.90
7572;DHT22;3827;49.928;8.548;2023-11-19T01:38:27;8.00;99.90
7572;DHT22;3827;49.928;8.548;2023-11-19T01:40:56;8.00;99.90
7572;DHT22;3827;49.928;8.548;2023-11-19T01:43:32;7.90;99.90
7572;DHT22;3827;49.928;8.548;2023-11-19T01:45:59;8.00;99.90
7572;DHT22;3827;49.928;8.548;2023-11-19T01:48:26;8.10;99.90
7572;DHT22;3827;49.928;8.548;2023-11-19T01:50:55;8.10;99.90
7572;DHT22;3827;49.928;8.548;2023-11-19T01:53:23;8.10;99.90
7572;DHT22;3827;49.928;8.548;2023-11-19T01:55:50;8.10;99.90
7572;DHT22;3827;49.928;8.548;2023-11-19T01:58:18;8.10;99.90
7572;DHT22;3827;49.928;8.548;2023-11-19T02:00:45;8.20;99.90
7572;DHT22;3827;49.928;8.548;2023-11-19T02:03:12;8.20;99.90
7572;DHT22;3827;49.928;8.548;2023-11-19T02:05:40;8.20;99.90
7572;DHT22;3827;49.928;8.548;2023-11-19T02:08:08;8.30;99.90
7572;DHT22;3827;49.928;8.548;2023-11-19T02:10:35;8.30;99.90
7572;DHT22;3827;49.928;8.548;2023-11-19T02:13:02;8.20;99.90
7572;DHT22;3827;49.928;8.548;2023-11-19T02:15:30;8.30;99.90
7572;DHT22;3827;49.928;8.548;2023-11-19T02:17:57;8.30;99.90
7572;DHT22;3827;49.928;8.548;2023-11-19T02:20:43;8.30;99.90
7572;DHT22;3827;49.928;8.548;2023-11-19T02:23:12;8.30;99.90
7572;DHT22;3827;49.928;8.548;2023-11-19T02:25:40;8.30;99.90
7572;DHT22;3827;49.928;8.548;2023-11-19T02:28:09;8.40;99.90
7572;DHT22;3827;49.928;8.548;2023-11-19T02:30:37;8.40;99.90
7572;DHT22;3827;49.928;8.548;2023-11-19T02:33:04;8.40;99.90
7572;DHT22;3827;49.928;8.548;2023-11-19T02:35:32;8.40;99.90
7572;DHT22;3827;49.928;8.548;2023-11-19T02:37:59;8.50;99.90
7572;DHT22;3827;49.928;8.548;2023-11-19T02:40:26;8.50;99.90
7572;DHT22;3827;49.928;8.548;2023-11-19T02:42:53;8.50;99.90
7572;DHT22;3827;49.928;8.548;2023-11-19T02:45:22;8.50;99.90
7572;DHT22;3827;49.928;8.548;2023-11-19T02:47:49;8.60;99.90
7572;DHT22;3827;49.928;8.548;2023-11-19T02:50:18;8.60;99.90
7572;DHT22;3827;49.928;8.548;2023-11-19T02:52:51;8.60;99.90
7572;DHT22;3827;49.928;8.548;2023-11-19T02:55:18;8.60;99.90
7572;DHT22;3827;49.928;8.548;2023-11-19T02:57:45;8.60;99.90
7572;DHT22;3827;49.928;8.548;2023-11-19T03:00:14;8.70;99.90
7572;DHT22;3827;49.928;8.548;2023-11-19T03:02:43;8.70;99.90
7572;DHT22;3827;49.928;8.548;2023-11-19T03:05:11;8.70;99.90
7572;DHT22;3827;49.928;8.548;2023-11-19T03:07:40;8.70;99.90
7572;DHT22;3827;49.928;8.548;2023-11-19T03:10:12;8.70;99.90
7572;DHT22;3827;49.928;8.548;2023-11-19T03:12:39;8.70;99.90
7572;DHT22;3827;49.928;8.548;2023-11-19T03:15:07;9.50;99.90
7572;DHT22;3827;49.928;8.548;2023-11-19T03:17:35;8.80;99.90
7572;DHT22;3827;49.928;8.548;2023-11-19T03:20:06;8.80;99.90
7572;DHT22;3827;49.928;8.548;2023-11-19T03:22:35;8.80;99.90
7572;DHT22;3827;49.928;8.548;2023-11-19T03:25:03;8.80;99.90
7572;DHT22;3827;49.928;8.548;2023-11-19T03:27:30;8.80;99.90
7572;DHT22;3827;49.928;8.548;2023-11-19T03:29:57;8.80;99.90
7572;DHT22;3827;49.928;8.548;2023-11-19T03:32:24;8.80;99.90
7572;DHT22;3827;49.928;8.548;2023-11-19T03:34:50;8.80;99.90
7572;DHT22;3827;49.928;8.548;2023-11-19T03:37:18;8.80;99.90
7572;DHT22;3827;49.928;8.548;2023-11-19T03:39:45;8.80;99.90
7572;DHT22;3827;49.928;8.548;2023-11-19T03:42:12;8.90;99.90
7572;DHT22;3827;49.928;8.548;2023-11-19T03:44:39;8.90;99.90
7572;DHT22;3827;49.928;8.548;2023-11-19T03:47:05;8.90;99.90
7572;DHT22;3827;49.928;8.548;2023-11-19T03:49:32;8.90;99.90
7572;DHT22;3827;49.928;8.548;2023-11-19T03:51:59;8.90;99.90
7572;DHT22;3827;49.928;8.548;2023-11-19T03:54:27;8.90;99.90
7572;DHT22;3827;49.928;8.548;2023-11-19T03:56:54;8.90;99.90
7572;DHT22;3827;49.928;8.548;2023-11-19T03:59:20;8.90;99.90
7572;DHT22;3827;49.928;8.548;2023-11-19T04:01:47;9.30;99.90
7572;DHT22;3827;49.928;8.548;2023-11-19T04:04:13;8.90;99.90
7572;DHT22;3827;49.928;8.548;2023-11-19T04:06:40;8.90;99.90
7572;DHT22;3827;49.928;8.548;2023-11-19T04:09:07;9.00;99.90
7572;DHT22;3827;49.928;8.548;2023-11-19T04:11:35;9.00;99.90
7572;DHT22;3827;49.928;8.548;2023-11-19T04:14:02;9.00;99.90
7572;DHT22;3827;49.928;8.548;2023-11-19T04:16:29;9.00;99.90
7572;DHT22;3827;49.928;8.548;2023-11-19T04:18:56;9.00;99.90
7572;DHT22;3827;49.928;8.548;2023-11-19T04:21:22;9.00;99.90
7572;DHT22;3827;49.928;8.548;2023-11-19T04:23:49;9.20;99.90
7572;DHT22;3827;49.928;8.548;2023-11-19T04:26:16;9.00;99.90
7572;DHT22;3827;49.928;8.548;2023-11-19T04:28:44;9.40;99.90
7572;DHT22;3827;49.928;8.548;2023-11-19T04:31:11;9.00;99.90
7572;DHT22;3827;49.928;8.548;2023-11-19T04:33:37;9.00;99.90
7572;DHT22;3827;49.928;8.548;2023-11-19T04:36:05;9.90;99.90
7572;DHT22;3827;49.928;8.548;2023-11-19T04:38:32;9.00;99.90
7572;DHT22;3827;49.928;8.548;2023-11-19T04:41:00;9.10;99.90
7572;DHT22;3827;49.928;8.548;2023-11-19T04:43:27;9.10;99.90
7572;DHT22;3827;49.928;8.548;2023-11-19T04:45:55;9.70;99.90
7572;DHT22;3827;49.928;8.548;2023-11-19T04:48:23;9.10;99.90
7572;DHT22;3827;49.928;8.548;2023-11-19T04:50:49;9.10;99.90
7572;DHT22;3827;49.928;8.548;2023-11-19T04:53:18;9.40;99.90
7572;DHT22;3827;49.928;8.548;2023-11-19T04:55:44;9.20;99.90
7572;DHT22;3827;49.928;8.548;2023-11-19T04:58:11;9.20;99.90
7572;DHT22;3827;49.928;8.548;2023-11-19T05:00:38;9.20;99.90
7572;DHT22;3827;49.928;8.548;2023-11-19T05:03:06;9.20;99.90
7572;DHT22;3827;49.928;8.548;2023-11-19T05:05:33;9.20;99.90
7572;DHT22;3827;49.928;8.548;2023-11-19T05:08:00;9.20;99.90
7572;DHT22;3827;49.928;8.548;2023-11-19T05:10:27;9.30;99.90
7572;DHT22;3827;49.928;8.548;2023-11-19T05:12:54;9.30;99.90
7572;DHT22;3827;49.928;8.548;2023-11-19T05:15:22;9.30;99.90
7572;DHT22;3827;49.928;8.548;2023-11-19T05:17:49;9.30;99.90
7572;DHT22;3827;49.928;8.548;2023-11-19T05:20:17;9.30;99.90
7572;DHT22;3827;49.928;8.548;2023-11-19T05:22:44;9.30;99.90
7572;DHT22;3827;49.928;8.548;2023-11-19T05:25:11;9.30;99.90
7572;DHT22;3827;49.928;8.548;2023-11-19T05:27:38;9.40;99.90
7572;DHT22;3827;49.928;8.548;2023-11-19T05:30:06;9.30;99.90
7572;DHT22;3827;49.928;8.548;2023-11-19T05:32:33;9.40;99.90
7572;DHT22;3827;49.928;8.548;2023-11-19T05:35:00;9.40;99.90
7572;DHT22;3827;49.928;8.548;2023-11-19T05:37:28;10.00;99.90
7572;DHT22;3827;49.928;8.548;2023-11-19T05:39:55;9.40;99.90
7572;DHT22;3827;49.928;8.548;2023-11-19T05:42:22;9.90;99.90
7572;DHT22;3827;49.928;8.548;2023-11-19T05:44:49;9.50;99.90
7572;DHT22;3827;49.928;8.548;2023-11-19T05:47:17;9.50;99.90
7572;DHT22;3827;49.928;8.548;2023-11-19T05:49:44;9.50;99.90
7572;DHT22;3827;49.928;8.548;2023-11-19T05:52:10;9.50;99.90
7572;DHT22;3827;49.928;8.548;2023-11-19T05:54:39;9.50;99.90
7572;DHT22;3827;49.928;8.548;2023-11-19T05:57:06;9.60;99.90
7572;DHT22;3827;49.928;8.548;2023-11-19T05:59:34;9.50;99.90
7572;DHT22;3827;49.928;8.548;2023-11-19T06:02:01;9.60;99.90
7572;DHT22;3827;49.928;8.548;2023-11-19T06:04:28;9.60;99.90
7572;DHT22;3827;49.928;8.548;2023-11-19T06:06:55;9.60;99.90
7572;DHT22;3827;49.928;8.548;2023-11-19T06:09:21;9.70;99.90
7572;DHT22;3827;49.928;8.548;2023-11-19T06:11:51;8.10;99.90
7572;DHT22;3827;49.928;8.548;2023-11-19T06:14:18;9.70;99.90
7572;DHT22;3827;49.928;8.548;2023-11-19T06:16:45;9.70;99.90
7572;DHT22;3827;49.928;8.548;2023-11-19T06:19:12;9.70;99.90
7572;DHT22;3827;49.928;8.548;2023-11-19T06:21:38;9.70;99.90
7572;DHT22;3827;49.928;8.548;2023-11-19T06:24:05;9.70;99.90
7572;DHT22;3827;49.928;8.548;2023-11-19T06:26:34;9.70;99.90
7572;DHT22;3827;49.928;8.548;2023-11-19T06:29:02;9.70;99.90
7572;DHT22;3827;49.928;8.548;2023-11-19T06:31:29;9.80;99.90
7572;DHT22;3827;49.928;8.548;2023-11-19T06:33:56;10.40;99.90
7572;DHT22;3827;49.928;8.548;2023-11-19T06:36:23;9.80;99.90
7572;DHT22;3827;49.928;8.548;2023-11-19T06:38:50;9.80;99.90
7572;DHT22;3827;49.928;8.548;2023-11-19T06:41:17;9.80;99.90
7572;DHT22;3827;49.928;8.548;2023-11-19T06:43:44;9.80;99.90
7572;DHT22;3827;49.928;8.548;2023-11-19T06:46:18;9.80;99.90
7572;DHT22;3827;49.928;8.548;2023-11-19T06:48:45;9.90;99.90
7572;DHT22;3827;49.928;8.548;2023-11-19T06:51:12;9.90;99.90
7572;DHT22;3827;49.928;8.548;2023-11-19T06:53:39;10.00;99.90
7572;DHT22;3827;49.928;8.548;2023-11-19T06:56:10;9.90;99.90
7572;DHT22;3827;49.928;8.548;2023-11-19T06:58:43;9.90;99.90
7572;DHT22;3827;49.928;8.548;2023-11-19T07:01:10;10.00;99.90
7572;DHT22;3827;49.928;8.548;2023-11-19T07:03:38;10.10;99.90
7572;DHT22;3827;49.928;8.548;2023-11-19T07:06:06;10.00;99.90
7572;DHT22;3827;49.928;8.548;2023-11-19T07:08:32;10.00;99.90
7572;DHT22;3827;49.928;8.548;2023-11-19T07:11:00;10.00;99.90
7572;DHT22;3827;49.928;8.548;2023-11-19T07:13:26;10.00;99.90
7572;DHT22;3827;49.928;8.548;2023-11-19T07:15:53;10.00;99.90
7572;DHT22;3827;49.928;8.548;2023-11-19T07:18:20;9.90;99.90
7572;DHT22;3827;49.928;8.548;2023-11-19T07:20:49;10.50;99.90
7572;DHT22;3827;49.928;8.548;2023-11-19T07:23:15;10.00;99.90
7572;DHT22;3827;49.928;8.548;2023-11-19T07:25:42;10.40;99.90
7572;DHT22;3827;49.928;8.548;2023-11-19T07:28:10;10.00;99.90
7572;DHT22;3827;49.928;8.548;2023-11-19T07:30:38;10.10;99.90
7572;DHT22;3827;49.928;8.548;2023-11-19T07:33:04;10.10;99.90
7572;DHT22;3827;49.928;8.548;2023-11-19T07:35:31;8.10;99.90
7572;DHT22;3827;49.928;8.548;2023-11-19T07:37:59;10.20;99.90
7572;DHT22;3827;49.928;8.548;2023-11-19T07:40:26;10.20;99.90
7572;DHT22;3827;49.928;8.548;2023-11-19T07:42:53;10.20;99.90
7572;DHT22;3827;49.928;8.548;2023-11-19T07:45:20;10.20;99.90
7572;DHT22;3827;49.928;8.548;2023-11-19T07:47:46;10.20;99.90
7572;DHT22;3827;49.928;8.548;2023-11-19T07:50:13;10.30;99.90
7572;DHT22;3827;49.928;8.548;2023-11-19T07:52:42;10.20;99.90
7572;DHT22;3827;49.928;8.548;2023-11-19T07:55:10;10.30;99.90
7572;DHT22;3827;49.928;8.548;2023-11-19T07:57:36;10.30;99.90
7572;DHT22;3827;49.928;8.548;2023-11-19T08:00:03;11.00;99.90
7572;DHT22;3827;49.928;8.548;2023-11-19T08:02:30;10.30;99.90
7572;DHT22;3827;49.928;8.548;2023-11-19T08:04:57;10.30;99.90
7572;DHT22;3827;49.928;8.548;2023-11-19T08:07:24;10.30;99.90
7572;DHT22;3827;49.928;8.548;2023-11-19T08:09:50;10.30;99.90
7572;DHT22;3827;49.928;8.548;2023-11-19T08:12:18;10.40;99.90
7572;DHT22;3827;49.928;8.548;2023-11-19T08:14:45;10.40;99.90
7572;DHT22;3827;49.928;8.548;2023-11-19T08:17:12;10.40;99.90
7572;DHT22;3827;49.928;8.548;2023-11-19T08:19:39;10.40;99.90
7572;DHT22;3827;49.928;8.548;2023-11-19T08:22:06;10.50;99.90
7572;DHT22;3827;49.928;8.548;2023-11-19T08:24:34;10.50;99.90
7572;DHT22;3827;49.928;8.548;2023-11-19T08:27:01;11.30;99.90
7572;DHT22;3827;49.928;8.548;2023-11-19T08:29:29;10.70;99.90
7572;DHT22;3827;49.928;8.548;2023-11-19T08:31:56;10.80;99.90
7572;DHT22;3827;49.928;8.548;2023-11-19T08:34:23;10.90;99.90
7572;DHT22;3827;49.928;8.548;2023-11-19T08:36:50;11.30;99.90
7572;DHT22;3827;49.928;8.548;2023-11-19T08:39:18;11.20;99.90
7572;DHT22;3827;49.928;8.548;2023-11-19T08:41:46;11.30;99.90
7572;DHT22;3827;49.928;8.548;2023-11-19T08:44:13;11.40;99.90
7572;DHT22;3827;49.928;8.548;2023-11-19T08:46:47;11.50;99.90
7572;DHT22;3827;49.928;8.548;2023-11-19T08:49:14;11.50;99.90
7572;DHT22;3827;49.928;8.548;2023-11-19T08:51:41;11.50;99.90
7572;DHT22;3827;49.928;8.548;2023-11-19T08:54:08;11.60;99.90
7572;DHT22;3827;49.928;8.548;2023-11-19T08:56:35;11.50;99.90
7572;DHT22;3827;49.928;8.548;2023-11-19T08:59:01;11.50;99.90
7572;DHT22;3827;49.928;8.548;2023-11-19T09:01:29;11.50;99.90
7572;DHT22;3827;49.928;8.548;2023-11-19T09:03:57;11.40;99.90
7572;DHT22;3827;49.928;8.548;2023-11-19T09:06:24;11.50;99.90
7572;DHT22;3827;49.928;8.548;2023-11-19T09:08:51;11.50;99.90
7572;DHT22;3827;49.928;8.548;2023-11-19T09:11:18;11.50;99.90
7572;DHT22;3827;49.928;8.548;2023-11-19T09:13:45;11.60;99.90
7572;DHT22;3827;49.928;8.548;2023-11-19T09:16:12;11.70;99.90
7572;DHT22;3827;49.928;8.548;2023-11-19T09:18:38;11.70;99.90
7572;DHT22;3827;49.928;8.548;2023-11-19T09:21:07;11.70;99.90
7572;DHT22;3827;49.928;8.548;2023-11-19T09:23:34;11.70;99.90
7572;DHT22;3827;49.928;8.548;2023-11-19T09:26:05;11.70;99.90
7572;DHT22;3827;49.928;8.548;2023-11-19T09:28:32;11.80;99.90
7572;DHT22;3827;49.928;8.548;2023-11-19T09:30:59;11.90;99.90
7572;DHT22;3827;49.928;8.548;2023-11-19T09:33:25;11.90;99.90
7572;DHT22;3827;49.928;8.548;2023-11-19T09:35:52;11.90;99.90
7572;DHT22;3827;49.928;8.548;2023-11-19T09:38:21;11.90;99.90
7572;DHT22;3827;49.928;8.548;2023-11-19T09:40:47;11.90;99.90
7572;DHT22;3827;49.928;8.548;2023-11-19T09:43:15;12.00;99.90
7572;DHT22;3827;49.928;8.548;2023-11-19T09:45:48;11.90;99.90
7572;DHT22;3827;49.928;8.548;2023-11-19T09:48:17;11.90;99.90
7572;DHT22;3827;49.928;8.548;2023-11-19T09:50:45;11.90;99.90
7572;DHT22;3827;49.928;8.548;2023-11-19T09:53:13;11.90;99.90
7572;DHT22;3827;49.928;8.548;2023-11-19T09:55:42;11.90;99.90
7572;DHT22;3827;49.928;8.548;2023-11-19T09:58:12;11.80;99.90
7572;DHT22;3827;49.928;8.548;2023-11-19T10:00:38;11.80;99.90
7572;DHT22;3827;49.928;8.548;2023-11-19T10:03:13;11.70;99.90
7572;DHT22;3827;49.928;8.548;2023-11-19T10:05:43;11.70;99.90
7572;DHT22;3827;49.928;8.548;2023-11-19T10:08:10;11.80;99.90
7572;DHT22;3827;49.928;8.548;2023-11-19T10:10:37;11.80;99.90
7572;DHT22;3827;49.928;8.548;2023-11-19T10:13:05;11.70;99.90
7572;DHT22;3827;49.928;8.548;2023-11-19T10:15:37;11.80;99.90
7572;DHT22;3827;49.928;8.548;2023-11-19T10:18:03;11.70;99.90
7572;DHT22;3827;49.928;8.548;2023-11-19T10:20:35;11.70;99.90
7572;DHT22;3827;49.928;8.548;2023-11-19T10:23:02;11.70;99.90
7572;DHT22;3827;49.928;8.548;2023-11-19T10:25:29;11.60;99.90
7572;DHT22;3827;49.928;8.548;2023-11-19T10:27:56;12.00;99.90
7572;DHT22;3827;49.928;8.548;2023-11-19T10:30:26;11.70;99.90
7572;DHT22;3827;49.928;8.548;2023-11-19T10:33:03;11.70;99.90
7572;DHT22;3827;49.928;8.548;2023-11-19T10:35:31;11.70;99.90
7572;DHT22;3827;49.928;8.548;2023-11-19T10:37:59;11.70;99.90
7572;DHT22;3827;49.928;8.548;2023-11-19T10:40:38;11.80;99.90
7572;DHT22;3827;49.928;8.548;2023-11-19T10:43:06;11.80;99.90
7572;DHT22;3827;49.928;8.548;2023-11-19T10:45:35;11.90;99.90
7572;DHT22;3827;49.928;8.548;2023-11-19T10:48:02;11.90;99.90
7572;DHT22;3827;49.928;8.548;2023-11-19T10:50:32;12.10;99.90
7572;DHT22;3827;49.928;8.548;2023-11-19T10:52:59;12.30;99.90
7572;DHT22;3827;49.928;8.548;2023-11-19T10:55:28;12.50;99.90
7572;DHT22;3827;49.928;8.548;2023-11-19T10:57:59;12.80;99.90
7572;DHT22;3827;49.928;8.548;2023-11-19T11:00:27;13.10;99.90
7572;DHT22;3827;49.928;8.548;2023-11-19T11:03:00;13.50;99.90
7572;DHT22;3827;49.928;8.548;2023-11-19T11:05:28;13.60;99.90
7572;DHT22;3827;49.928;8.548;2023-11-19T11:07:56;13.60;99.90
7572;DHT22;3827;49.928;8.548;2023-11-19T11:10:25;13.80;99.90
7572;DHT22;3827;49.928;8.548;2023-11-19T11:12:52;13.90;99.90
7572;DHT22;3827;49.928;8.548;2023-11-19T11:15:27;14.00;99.90
7572;DHT22;3827;49.928;8.548;2023-11-19T11:17:59;14.20;99.90
7572;DHT22;3827;49.928;8.548;2023-11-19T11:20:27;14.50;99.90
7572;DHT22;3827;49.928;8.548;2023-11-19T11:23:28;14.80;99.90
7572;DHT22;3827;49.928;8.548;2023-11-19T11:26:12;15.30;99.90
7572;DHT22;3827;49.928;8.548;2023-11-19T11:28:46;15.80;99.90
7572;DHT22;3827;49.928;8.548;2023-11-19T11:31:23;16.10;99.90
7572;DHT22;3827;49.928;8.548;2023-11-19T11:34:14;16.10;99.90
7572;DHT22;3827;49.928;8.548;2023-11-19T11:36:48;16.60;99.90
7572;DHT22;3827;49.928;8.548;2023-11-19T11:39:22;16.70;99.90
7572;DHT22;3827;49.928;8.548;2023-11-19T11:42:32;16.40;99.90
7572;DHT22;3827;49.928;8.548;2023-11-19T11:44:59;16.00;99.90
7572;DHT22;3827;49.928;8.548;2023-11-19T11:48:08;15.60;99.90
7572;DHT22;3827;49.928;8.548;2023-11-19T11:50:36;15.70;99.90
7572;DHT22;3827;49.928;8.548;2023-11-19T11:53:14;15.10;99.90
7572;DHT22;3827;49.928;8.548;2023-11-19T11:55:55;14.70;99.90
7572;DHT22;3827;49.928;8.548;2023-11-19T11:58:30;14.30;99.90
7572;DHT22;3827;49.928;8.548;2023-11-19T12:00:58;14.10;99.90
7572;DHT22;3827;49.928;8.548;2023-11-19T12:03:29;14.00;99.90
7572;DHT22;3827;49.928;8.548;2023-11-19T12:05:57;13.80;99.90
7572;DHT22;3827;49.928;8.548;2023-11-19T12:08:26;13.90;99.90
7572;DHT22;3827;49.928;8.548;2023-11-19T12:10:54;13.90;99.90
7572;DHT22;3827;49.928;8.548;2023-11-19T12:13:23;14.00;99.90
7572;DHT22;3827;49.928;8.548;2023-11-19T12:16:09;14.20;99.90
7572;DHT22;3827;49.928;8.548;2023-11-19T12:18:39;14.50;99.90
7572;DHT22;3827;49.928;8.548;2023-11-19T12:21:07;14.60;99.90
7572;DHT22;3827;49.928;8.548;2023-11-19T12:23:35;14.60;99.90
7572;DHT22;3827;49.928;8.548;2023-11-19T12:26:02;14.60;99.90
7572;DHT22;3827;49.928;8.548;2023-11-19T12:28:29;14.70;99.90
7572;DHT22;3827;49.928;8.548;2023-11-19T12:31:07;14.70;99.90
7572;DHT22;3827;49.928;8.548;2023-11-19T12:33:35;14.70;99.90
7572;DHT22;3827;49.928;8.548;2023-11-19T12:36:05;14.70;99.90
7572;DHT22;3827;49.928;8.548;2023-11-19T12:38:33;14.80;99.90
7572;DHT22;3827;49.928;8.548;2023-11-19T12:41:03;14.90;99.90
7572;DHT22;3827;49.928;8.548;2023-11-19T12:43:30;14.80;99.90
7572;DHT22;3827;49.928;8.548;2023-11-19T12:45:57;14.90;99.90
7572;DHT22;3827;49.928;8.548;2023-11-19T12:48:24;15.10;99.90
7572;DHT22;3827;49.928;8.548;2023-11-19T12:50:51;15.00;99.90
7572;DHT22;3827;49.928;8.548;2023-11-19T12:53:19;15.20;99.90
7572;DHT22;3827;49.928;8.548;2023-11-19T12:55:46;15.20;99.90
7572;DHT22;3827;49.928;8.548;2023-11-19T12:58:28;15.30;99.90
7572;DHT22;3827;49.928;8.548;2023-11-19T13:00:59;15.50;99.90
7572;DHT22;3827;49.928;8.548;2023-11-19T13:03:30;15.40;99.90
7572;DHT22;3827;49.928;8.548;2023-11-19T13:06:02;15.30;99.90
7572;DHT22;3827;49.928;8.548;2023-11-19T13:08:36;15.30;99.90
7572;DHT22;3827;49.928;8.548;2023-11-19T13:11:03;15.20;99.90
7572;DHT22;3827;49.928;8.548;2023-11-19T13:13:32;15.00;99.90
7572;DHT22;3827;49.928;8.548;2023-11-19T13:16:05;14.70;99.90
7572;DHT22;3827;49.928;8.548;2023-11-19T13:18:32;16.90;99.90
7572;DHT22;3827;49.928;8.548;2023-11-19T13:20:58;14.30;99.90
7572;DHT22;3827;49.928;8.548;2023-11-19T13:23:25;14.10;99.90
7572;DHT22;3827;49.928;8.548;2023-11-19T13:25:54;14.00;99.90
7572;DHT22;3827;49.928;8.548;2023-11-19T13:28:23;14.20;99.90
7572;DHT22;3827;49.928;8.548;2023-11-19T13:30:52;14.40;99.90
7572;DHT22;3827;49.928;8.548;2023-11-19T13:33:19;14.30;99.90
7572;DHT22;3827;49.928;8.548;2023-11-19T13:35:46;14.30;99.90
7572;DHT22;3827;49.928;8.548;2023-11-19T13:38:12;14.30;99.90
7572;DHT22;3827;49.928;8.548;2023-11-19T13:40:40;14.50;99.90
7572;DHT22;3827;49.928;8.548;2023-11-19T13:43:08;14.60;99.90
7572;DHT22;3827;49.928;8.548;2023-11-19T13:45:35;14.80;99.90
7572;DHT22;3827;49.928;8.548;2023-11-19T13:48:02;14.70;99.90
7572;DHT22;3827;49.928;8.548;2023-11-19T13:50:28;14.50;99.90
7572;DHT22;3827;49.928;8.548;2023-11-19T13:52:55;14.50;99.90
7572;DHT22;3827;49.928;8.548;2023-11-19T13:55:26;14.30;99.90
7572;DHT22;3827;49.928;8.548;2023-11-19T13:57:53;14.20;99.90
7572;DHT22;3827;49.928;8.548;2023-11-19T14:00:21;14.20;99.90
7572;DHT22;3827;49.928;8.548;2023-11-19T14:02:49;14.10;99.90
7572;DHT22;3827;49.928;8.548;2023-11-19T14:05:17;14.10;99.90
7572;DHT22;3827;49.928;8.548;2023-11-19T14:07:44;14.00;99.90
7572;DHT22;3827;49.928;8.548;2023-11-19T14:10:14;13.90;99.90
7572;DHT22;3827;49.928;8.548;2023-11-19T14:12:41;13.90;99.90
7572;DHT22;3827;49.928;8.548;2023-11-19T14:15:10;13.80;99.90
7572;DHT22;3827;49.928;8.548;2023-11-19T14:17:39;13.70;99.90
7572;DHT22;3827;49.928;8.548;2023-11-19T14:20:07;13.70;99.90
7572;DHT22;3827;49.928;8.548;2023-11-19T14:22:38;13.60;99.90
7572;DHT22;3827;49.928;8.548;2023-11-19T14:25:09;13.50;99.90
7572;DHT22;3827;49.928;8.548;2023-11-19T14:27:36;13.70;99.90
7572;DHT22;3827;49.928;8.548;2023-11-19T14:30:05;13.60;99.90
7572;DHT22;3827;49.928;8.548;2023-11-19T14:32:32;13.80;99.90
7572;DHT22;3827;49.928;8.548;2023-11-19T14:35:00;13.90;99.90
7572;DHT22;3827;49.928;8.548;2023-11-19T14:37:27;13.90;99.90
7572;DHT22;3827;49.928;8.548;2023-11-19T14:39:53;13.90;99.90
7572;DHT22;3827;49.928;8.548;2023-11-19T14:42:19;13.80;99.90
7572;DHT22;3827;49.928;8.548;2023-11-19T14:44:46;13.80;99.90
7572;DHT22;3827;49.928;8.548;2023-11-19T14:47:13;13.80;99.90
7572;DHT22;3827;49.928;8.548;2023-11-19T14:49:40;13.80;99.90
7572;DHT22;3827;49.928;8.548;2023-11-19T14:52:08;13.80;99.90
7572;DHT22;3827;49.928;8.548;2023-11-19T14:54:35;13.80;99.90
7572;DHT22;3827;49.928;8.548;2023-11-19T14:57:02;13.80;99.90
7572;DHT22;3827;49.928;8.548;2023-11-19T14:59:29;13.70;99.90
7572;DHT22;3827;49.928;8.548;2023-11-19T15:01:57;14.10;99.90
7572;DHT22;3827;49.928;8.548;2023-11-19T15:04:24;13.50;99.90
7572;DHT22;3827;49.928;8.548;2023-11-19T15:06:53;13.30;99.90
7572;DHT22;3827;49.928;8.548;2023-11-19T15:09:21;13.20;99.90
7572;DHT22;3827;49.928;8.548;2023-11-19T15:11:47;13.10;99.90
7572;DHT22;3827;49.928;8.548;2023-11-19T15:14:14;12.90;99.90
7572;DHT22;3827;49.928;8.548;2023-11-19T15:16:45;12.80;99.90
7572;DHT22;3827;49.928;8.548;2023-11-19T15:19:12;12.60;99.90
7572;DHT22;3827;49.928;8.548;2023-11-19T15:21:39;12.50;99.90
7572;DHT22;3827;49.928;8.548;2023-11-19T15:24:08;12.40;99.90
7572;DHT22;3827;49.928;8.548;2023-11-19T15:26:36;12.20;99.90
7572;DHT22;3827;49.928;8.548;2023-11-19T15:29:04;12.10;99.90
7572;DHT22;3827;49.928;8.548;2023-11-19T15:31:31;12.00;99.90
7572;DHT22;3827;49.928;8.548;2023-11-19T15:33:58;11.80;99.90
7572;DHT22;3827;49.928;8.548;2023-11-19T15:36:25;11.80;99.90
7572;DHT22;3827;49.928;8.548;2023-11-19T15:38:51;11.70;99.90
7572;DHT22;3827;49.928;8.548;2023-11-19T15:41:18;11.60;99.90
7572;DHT22;3827;49.928;8.548;2023-11-19T15:43:46;13.90;99.90
7572;DHT22;3827;49.928;8.548;2023-11-19T15:46:13;11.40;99.90
7572;DHT22;3827;49.928;8.548;2023-11-19T15:48:41;11.40;99.90
7572;DHT22;3827;49.928;8.548;2023-11-19T15:51:08;11.50;99.90
7572;DHT22;3827;49.928;8.548;2023-11-19T15:53:35;11.60;99.90
7572;DHT22;3827;49.928;8.548;2023-11-19T15:56:01;11.50;99.90
7572;DHT22;3827;49.928;8.548;2023-11-19T15:58:28;11.50;99.90
7572;DHT22;3827;49.928;8.548;2023-11-19T16:00:57;12.20;99.90
7572;DHT22;3827;49.928;8.548;2023-11-19T16:03:23;11.50;99.90
7572;DHT22;3827;49.928;8.548;2023-11-19T16:05:50;11.60;99.90
7572;DHT22;3827;49.928;8.548;2023-11-19T16:08:17;11.60;99.90
7572;DHT22;3827;49.928;8.548;2023-11-19T16:10:44;12.20;99.90
7572;DHT22;3827;49.928;8.548;2023-11-19T16:13:12;11.60;99.90
7572;DHT22;3827;49.928;8.548;2023-11-19T16:15:39;11.50;99.90